sensor_id;sensor_type;location;lat;lon;timestamp;P1;durP1;ratioP1;P2;durP2;ratioP2
48161;SDS011;33950;48.154;16.316;2023-03-03T00:00:43;36.75;;;16.77;;
48161;SDS011;33950;48.154;16.316;2023-03-03T00:03:30;41.03;;;17.15;;
48161;SDS011;33950;48.154;16.316;2023-03-03T00:06:16;45.03;;;17.13;;
48161;SDS011;33950;48.154;16.316;2023-03-03T00:09:02;44.97;;;17.83;;
48161;SDS011;33950;48.154;16.316;2023-03-03T00:11:49;41.38;;;18.33;;
48161;SDS011;33950;48.154;16.316;2023-03-03T00:14:40;42.15;;;18.83;;
48161;SDS011;33950;48.154;16.316;2023-03-03T00:17:28;47.85;;;19.13;;
48161;SDS011;33950;48.154;16.316;2023-03-03T00:20:26;35.00;;;17.73;;
48161;SDS011;33950;48.154;16.316;2023-03-03T00:23:18;42.50;;;16.63;;
48161;SDS011;33950;48.154;16.316;2023-03-03T00:26:14;40.58;;;17.55;;
48161;SDS011;33950;48.154;16.316;2023-03-03T00:29:18;41.47;;;17.48;;
48161;SDS011;33950;48.154;16.316;2023-03-03T00:32:22;45.13;;;18.40;;
48161;SDS011;33950;48.154;16.316;2023-03-03T00:35:20;42.03;;;16.75;;
48161;SDS011;33950;48.154;16.316;2023-03-03T00:38:09;44.15;;;15.98;;
48161;SDS011;33950;48.154;16.316;2023-03-03T00:40:59;41.42;;;16.45;;
48161;SDS011;33950;48.154;16.316;2023-03-03T00:43:45;45.72;;;17.17;;
48161;SDS011;33950;48.154;16.316;2023-03-03T00:46:31;33.85;;;15.82;;
48161;SDS011;33950;48.154;16.316;2023-03-03T00:49:21;35.30;;;16.25;;
48161;SDS011;33950;48.154;16.316;2023-03-03T00:52:13;34.40;;;15.45;;
48161;SDS011;33950;48.154;16.316;2023-03-03T00:55:02;39.90;;;17.15;;
48161;SDS011;33950;48.154;16.316;2023-03-03T00:57:49;37.40;;;17.35;;
48161;SDS011;33950;48.154;16.316;2023-03-03T01:00:35;36.65;;;17.02;;
48161;SDS011;33950;48.154;16.316;2023-03-03T01:03:23;38.72;;;17.15;;
48161;SDS011;33950;48.154;16.316;2023-03-03T01:06:12;38.05;;;17.00;;
48161;SDS011;33950;48.154;16.316;2023-03-03T01:09:00;38.83;;;17.02;;
48161;SDS011;33950;48.154;16.316;2023-03-03T01:11:46;38.85;;;17.13;;
48161;SDS011;33950;48.154;16.316;2023-03-03T01:14:32;37.75;;;16.85;;
48161;SDS011;33950;48.154;16.316;2023-03-03T01:17:18;43.25;;;18.27;;
48161;SDS011;33950;48.154;16.316;2023-03-03T01:20:05;40.42;;;17.45;;
48161;SDS011;33950;48.154;16.316;2023-03-03T01:22:52;37.97;;;17.90;;
48161;SDS011;33950;48.154;16.316;2023-03-03T01:25:39;40.15;;;17.50;;
48161;SDS011;33950;48.154;16.316;2023-03-03T01:28:26;39.40;;;18.13;;
48161;SDS011;33950;48.154;16.316;2023-03-03T01:31:12;38.97;;;16.58;;
48161;SDS011;33950;48.154;16.316;2023-03-03T01:33:58;40.38;;;17.17;;
48161;SDS011;33950;48.154;16.316;2023-03-03T01:36:44;38.85;;;16.65;;
48161;SDS011;33950;48.154;16.316;2023-03-03T01:39:30;41.22;;;18.75;;
48161;SDS011;33950;48.154;16.316;2023-03-03T01:42:18;47.03;;;21.23;;
48161;SDS011;33950;48.154;16.316;2023-03-03T01:45:12;49.88;;;20.10;;
48161;SDS011;33950;48.154;16.316;2023-03-03T01:48:01;50.38;;;19.70;;
48161;SDS011;33950;48.154;16.316;2023-03-03T01:50:52;40.28;;;19.08;;
48161;SDS011;33950;48.154;16.316;2023-03-03T01:53:40;45.08;;;20.13;;
48161;SDS011;33950;48.154;16.316;2023-03-03T01:56:29;47.58;;;19.77;;
48161;SDS011;33950;48.154;16.316;2023-03-03T01:59:18;42.35;;;19.02;;
48161;SDS011;33950;48.154;16.316;2023-03-03T02:04:54;47.15;;;18.70;;
48161;SDS011;33950;48.154;16.316;2023-03-03T02:07:40;38.33;;;17.95;;
48161;SDS011;33950;48.154;16.316;2023-03-03T02:10:26;52.25;;;19.60;;
48161;SDS011;33950;48.154;16.316;2023-03-03T02:13:13;42.63;;;17.88;;
48161;SDS011;33950;48.154;16.316;2023-03-03T02:16:01;44.55;;;19.20;;
48161;SDS011;33950;48.154;16.316;2023-03-03T02:18:47;49.58;;;18.73;;
48161;SDS011;33950;48.154;16.316;2023-03-03T02:21:33;46.15;;;19.33;;
48161;SDS011;33950;48.154;16.316;2023-03-03T02:24:22;42.60;;;18.55;;
48161;SDS011;33950;48.154;16.316;2023-03-03T02:27:13;41.95;;;18.55;;
48161;SDS011;33950;48.154;16.316;2023-03-03T02:30:07;48.22;;;20.48;;
48161;SDS011;33950;48.154;16.316;2023-03-03T02:32:55;54.40;;;21.75;;
48161;SDS011;33950;48.154;16.316;2023-03-03T02:35:41;44.45;;;19.02;;
48161;SDS011;33950;48.154;16.316;2023-03-03T02:38:28;42.92;;;18.58;;
48161;SDS011;33950;48.154;16.316;2023-03-03T02:41:24;40.65;;;18.98;;
48161;SDS011;33950;48.154;16.316;2023-03-03T02:44:16;45.75;;;20.58;;
48161;SDS011;33950;48.154;16.316;2023-03-03T02:47:03;59.33;;;21.30;;
48161;SDS011;33950;48.154;16.316;2023-03-03T02:49:49;48.85;;;20.55;;
48161;SDS011;33950;48.154;16.316;2023-03-03T02:52:35;38.33;;;17.92;;
48161;SDS011;33950;48.154;16.316;2023-03-03T02:55:22;52.60;;;22.10;;
48161;SDS011;33950;48.154;16.316;2023-03-03T02:58:08;56.53;;;22.70;;
48161;SDS011;33950;48.154;16.316;2023-03-03T03:00:55;51.00;;;21.67;;
48161;SDS011;33950;48.154;16.316;2023-03-03T03:03:41;49.55;;;19.42;;
48161;SDS011;33950;48.154;16.316;2023-03-03T03:06:28;47.35;;;20.95;;
48161;SDS011;33950;48.154;16.316;2023-03-03T03:09:14;48.25;;;20.17;;
48161;SDS011;33950;48.154;16.316;2023-03-03T03:12:01;52.53;;;21.45;;
48161;SDS011;33950;48.154;16.316;2023-03-03T03:14:48;48.85;;;21.42;;
48161;SDS011;33950;48.154;16.316;2023-03-03T03:17:35;49.65;;;21.40;;
48161;SDS011;33950;48.154;16.316;2023-03-03T03:20:22;52.55;;;20.95;;
48161;SDS011;33950;48.154;16.316;2023-03-03T03:23:08;40.17;;;18.98;;
48161;SDS011;33950;48.154;16.316;2023-03-03T03:25:55;46.78;;;20.92;;
48161;SDS011;33950;48.154;16.316;2023-03-03T03:28:41;46.47;;;19.13;;
48161;SDS011;33950;48.154;16.316;2023-03-03T03:31:27;46.28;;;20.25;;
48161;SDS011;33950;48.154;16.316;2023-03-03T03:34:15;47.88;;;17.73;;
48161;SDS011;33950;48.154;16.316;2023-03-03T03:37:01;45.28;;;19.25;;
48161;SDS011;33950;48.154;16.316;2023-03-03T03:39:47;47.90;;;20.02;;
48161;SDS011;33950;48.154;16.316;2023-03-03T03:42:33;44.67;;;18.75;;
48161;SDS011;33950;48.154;16.316;2023-03-03T03:45:19;44.58;;;18.15;;
48161;SDS011;33950;48.154;16.316;2023-03-03T03:48:05;44.42;;;19.33;;
48161;SDS011;33950;48.154;16.316;2023-03-03T03:50:53;46.70;;;20.88;;
48161;SDS011;33950;48.154;16.316;2023-03-03T03:53:39;44.92;;;18.65;;
48161;SDS011;33950;48.154;16.316;2023-03-03T03:56:25;44.25;;;19.50;;
48161;SDS011;33950;48.154;16.316;2023-03-03T03:59:11;41.50;;;19.50;;
48161;SDS011;33950;48.154;16.316;2023-03-03T04:01:57;45.95;;;21.13;;
48161;SDS011;33950;48.154;16.316;2023-03-03T04:04:43;46.30;;;20.73;;
48161;SDS011;33950;48.154;16.316;2023-03-03T04:07:31;47.45;;;19.15;;
48161;SDS011;33950;48.154;16.316;2023-03-03T04:10:17;44.53;;;19.90;;
48161;SDS011;33950;48.154;16.316;2023-03-03T04:13:03;46.17;;;20.05;;
48161;SDS011;33950;48.154;16.316;2023-03-03T04:15:49;55.28;;;22.38;;
48161;SDS011;33950;48.154;16.316;2023-03-03T04:18:35;58.83;;;21.60;;
48161;SDS011;33950;48.154;16.316;2023-03-03T04:21:21;53.33;;;21.88;;
48161;SDS011;33950;48.154;16.316;2023-03-03T04:24:09;42.92;;;20.73;;
48161;SDS011;33950;48.154;16.316;2023-03-03T04:26:55;50.58;;;20.42;;
48161;SDS011;33950;48.154;16.316;2023-03-03T04:29:41;59.50;;;21.88;;
48161;SDS011;33950;48.154;16.316;2023-03-03T04:32:27;59.53;;;23.35;;
48161;SDS011;33950;48.154;16.316;2023-03-03T04:35:14;52.72;;;20.33;;
48161;SDS011;33950;48.154;16.316;2023-03-03T04:38:01;48.33;;;20.15;;
48161;SDS011;33950;48.154;16.316;2023-03-03T04:40:48;50.42;;;21.80;;
48161;SDS011;33950;48.154;16.316;2023-03-03T04:43:34;48.92;;;21.23;;
48161;SDS011;33950;48.154;16.316;2023-03-03T04:46:20;43.70;;;19.55;;
48161;SDS011;33950;48.154;16.316;2023-03-03T04:49:06;52.22;;;20.70;;
48161;SDS011;33950;48.154;16.316;2023-03-03T04:51:53;43.90;;;19.75;;
48161;SDS011;33950;48.154;16.316;2023-03-03T04:54:39;52.97;;;19.67;;
48161;SDS011;33950;48.154;16.316;2023-03-03T04:57:26;48.00;;;17.75;;
48161;SDS011;33950;48.154;16.316;2023-03-03T05:00:13;42.95;;;16.90;;
48161;SDS011;33950;48.154;16.316;2023-03-03T05:02:59;55.05;;;19.08;;
48161;SDS011;33950;48.154;16.316;2023-03-03T05:05:46;47.30;;;19.20;;
48161;SDS011;33950;48.154;16.316;2023-03-03T05:08:32;52.75;;;19.45;;
48161;SDS011;33950;48.154;16.316;2023-03-03T05:11:18;52.33;;;21.80;;
48161;SDS011;33950;48.154;16.316;2023-03-03T05:14:06;60.67;;;23.67;;
48161;SDS011;33950;48.154;16.316;2023-03-03T05:16:52;74.50;;;27.58;;
48161;SDS011;33950;48.154;16.316;2023-03-03T05:19:39;55.17;;;20.05;;
48161;SDS011;33950;48.154;16.316;2023-03-03T05:22:25;40.30;;;18.10;;
48161;SDS011;33950;48.154;16.316;2023-03-03T05:25:11;52.38;;;18.55;;
48161;SDS011;33950;48.154;16.316;2023-03-03T05:27:57;50.00;;;19.90;;
48161;SDS011;33950;48.154;16.316;2023-03-03T05:30:45;55.15;;;23.17;;
48161;SDS011;33950;48.154;16.316;2023-03-03T05:33:31;50.30;;;21.13;;
48161;SDS011;33950;48.154;16.316;2023-03-03T05:36:17;55.05;;;22.25;;
48161;SDS011;33950;48.154;16.316;2023-03-03T05:39:04;53.15;;;21.52;;
48161;SDS011;33950;48.154;16.316;2023-03-03T05:41:50;56.58;;;23.75;;
48161;SDS011;33950;48.154;16.316;2023-03-03T05:44:36;56.30;;;22.63;;
48161;SDS011;33950;48.154;16.316;2023-03-03T05:47:23;51.13;;;20.83;;
48161;SDS011;33950;48.154;16.316;2023-03-03T05:50:09;52.78;;;20.10;;
48161;SDS011;33950;48.154;16.316;2023-03-03T05:52:56;47.40;;;21.20;;
48161;SDS011;33950;48.154;16.316;2023-03-03T05:55:42;51.72;;;21.77;;
48161;SDS011;33950;48.154;16.316;2023-03-03T05:58:29;53.58;;;22.05;;
48161;SDS011;33950;48.154;16.316;2023-03-03T06:01:15;54.65;;;22.63;;
48161;SDS011;33950;48.154;16.316;2023-03-03T06:04:02;57.83;;;23.20;;
48161;SDS011;33950;48.154;16.316;2023-03-03T06:06:48;65.25;;;26.35;;
48161;SDS011;33950;48.154;16.316;2023-03-03T06:09:35;75.18;;;28.80;;
48161;SDS011;33950;48.154;16.316;2023-03-03T06:12:21;79.93;;;31.55;;
48161;SDS011;33950;48.154;16.316;2023-03-03T06:15:07;75.07;;;29.00;;
48161;SDS011;33950;48.154;16.316;2023-03-03T06:17:54;79.50;;;31.63;;
48161;SDS011;33950;48.154;16.316;2023-03-03T06:20:42;77.15;;;31.75;;
48161;SDS011;33950;48.154;16.316;2023-03-03T06:23:28;73.22;;;31.15;;
48161;SDS011;33950;48.154;16.316;2023-03-03T06:26:14;79.70;;;32.58;;
48161;SDS011;33950;48.154;16.316;2023-03-03T06:29:00;74.65;;;30.70;;
48161;SDS011;33950;48.154;16.316;2023-03-03T06:31:46;77.70;;;30.02;;
48161;SDS011;33950;48.154;16.316;2023-03-03T06:34:32;85.30;;;32.85;;
48161;SDS011;33950;48.154;16.316;2023-03-03T06:37:20;75.90;;;29.52;;
48161;SDS011;33950;48.154;16.316;2023-03-03T06:40:06;71.55;;;30.58;;
48161;SDS011;33950;48.154;16.316;2023-03-03T06:42:53;85.68;;;33.40;;
48161;SDS011;33950;48.154;16.316;2023-03-03T06:45:40;82.43;;;34.47;;
48161;SDS011;33950;48.154;16.316;2023-03-03T06:48:26;89.50;;;35.15;;
48161;SDS011;33950;48.154;16.316;2023-03-03T06:51:19;83.30;;;34.60;;
48161;SDS011;33950;48.154;16.316;2023-03-03T06:54:10;83.50;;;32.60;;
48161;SDS011;33950;48.154;16.316;2023-03-03T06:56:58;86.32;;;35.50;;
48161;SDS011;33950;48.154;16.316;2023-03-03T06:59:51;88.65;;;36.50;;
48161;SDS011;33950;48.154;16.316;2023-03-03T07:02:39;96.88;;;38.38;;
48161;SDS011;33950;48.154;16.316;2023-03-03T07:05:26;108.30;;;43.45;;
48161;SDS011;33950;48.154;16.316;2023-03-03T07:08:14;117.00;;;43.85;;
48161;SDS011;33950;48.154;16.316;2023-03-03T07:11:07;95.85;;;40.47;;
48161;SDS011;33950;48.154;16.316;2023-03-03T07:14:00;98.85;;;40.28;;
48161;SDS011;33950;48.154;16.316;2023-03-03T07:16:49;83.53;;;38.20;;
48161;SDS011;33950;48.154;16.316;2023-03-03T07:19:40;96.75;;;39.35;;
48161;SDS011;33950;48.154;16.316;2023-03-03T07:22:29;113.10;;;40.25;;
48161;SDS011;33950;48.154;16.316;2023-03-03T07:25:20;106.93;;;41.58;;
48161;SDS011;33950;48.154;16.316;2023-03-03T07:28:15;108.93;;;43.22;;
48161;SDS011;33950;48.154;16.316;2023-03-03T07:31:16;105.85;;;43.10;;
48161;SDS011;33950;48.154;16.316;2023-03-03T07:34:13;114.45;;;42.13;;
48161;SDS011;33950;48.154;16.316;2023-03-03T07:37:08;109.03;;;43.13;;
48161;SDS011;33950;48.154;16.316;2023-03-03T07:39:57;107.63;;;43.75;;
48161;SDS011;33950;48.154;16.316;2023-03-03T07:42:45;109.25;;;42.67;;
48161;SDS011;33950;48.154;16.316;2023-03-03T07:45:33;103.30;;;42.55;;
48161;SDS011;33950;48.154;16.316;2023-03-03T07:48:23;98.25;;;42.22;;
48161;SDS011;33950;48.154;16.316;2023-03-03T07:51:12;105.32;;;42.50;;
48161;SDS011;33950;48.154;16.316;2023-03-03T07:54:12;104.88;;;43.45;;
48161;SDS011;33950;48.154;16.316;2023-03-03T07:57:11;103.18;;;42.58;;
48161;SDS011;33950;48.154;16.316;2023-03-03T08:00:42;95.57;;;42.40;;
48161;SDS011;33950;48.154;16.316;2023-03-03T08:03:33;97.75;;;39.15;;
48161;SDS011;33950;48.154;16.316;2023-03-03T08:06:30;106.18;;;43.13;;
48161;SDS011;33950;48.154;16.316;2023-03-03T08:12:34;91.85;;;38.20;;
48161;SDS011;33950;48.154;16.316;2023-03-03T08:15:24;93.47;;;39.08;;
48161;SDS011;33950;48.154;16.316;2023-03-03T08:18:18;84.73;;;36.47;;
48161;SDS011;33950;48.154;16.316;2023-03-03T08:21:09;91.07;;;37.80;;
48161;SDS011;33950;48.154;16.316;2023-03-03T08:23:57;91.10;;;39.05;;
48161;SDS011;33950;48.154;16.316;2023-03-03T08:26:43;94.60;;;37.95;;
48161;SDS011;33950;48.154;16.316;2023-03-03T08:29:29;90.57;;;37.75;;
48161;SDS011;33950;48.154;16.316;2023-03-03T08:32:15;90.10;;;37.13;;
48161;SDS011;33950;48.154;16.316;2023-03-03T08:35:01;89.13;;;36.40;;
48161;SDS011;33950;48.154;16.316;2023-03-03T08:37:49;85.15;;;34.67;;
48161;SDS011;33950;48.154;16.316;2023-03-03T08:40:36;83.88;;;36.63;;
48161;SDS011;33950;48.154;16.316;2023-03-03T08:43:22;81.53;;;37.17;;
48161;SDS011;33950;48.154;16.316;2023-03-03T08:46:09;79.80;;;34.67;;
48161;SDS011;33950;48.154;16.316;2023-03-03T08:48:56;84.60;;;36.15;;
48161;SDS011;33950;48.154;16.316;2023-03-03T08:51:44;96.60;;;38.15;;
48161;SDS011;33950;48.154;16.316;2023-03-03T08:54:32;94.88;;;37.17;;
48161;SDS011;33950;48.154;16.316;2023-03-03T08:57:18;83.50;;;36.08;;
48161;SDS011;33950;48.154;16.316;2023-03-03T09:00:05;83.30;;;37.95;;
48161;SDS011;33950;48.154;16.316;2023-03-03T09:02:52;86.88;;;37.85;;
48161;SDS011;33950;48.154;16.316;2023-03-03T09:05:39;81.78;;;34.88;;
48161;SDS011;33950;48.154;16.316;2023-03-03T09:08:25;80.97;;;35.88;;
48161;SDS011;33950;48.154;16.316;2023-03-03T09:11:13;82.85;;;37.53;;
48161;SDS011;33950;48.154;16.316;2023-03-03T09:14:06;90.82;;;39.63;;
48161;SDS011;33950;48.154;16.316;2023-03-03T09:16:55;80.27;;;35.70;;
48161;SDS011;33950;48.154;16.316;2023-03-03T09:19:42;83.93;;;35.85;;
48161;SDS011;33950;48.154;16.316;2023-03-03T09:22:28;88.78;;;36.38;;
48161;SDS011;33950;48.154;16.316;2023-03-03T09:25:21;88.60;;;35.20;;
48161;SDS011;33950;48.154;16.316;2023-03-03T09:28:17;81.03;;;33.92;;
48161;SDS011;33950;48.154;16.316;2023-03-03T09:31:16;70.95;;;32.92;;
48161;SDS011;33950;48.154;16.316;2023-03-03T09:34:13;83.13;;;35.58;;
48161;SDS011;33950;48.154;16.316;2023-03-03T09:37:14;78.30;;;33.85;;
48161;SDS011;33950;48.154;16.316;2023-03-03T09:40:11;79.45;;;35.03;;
48161;SDS011;33950;48.154;16.316;2023-03-03T09:46:08;78.90;;;34.50;;
48161;SDS011;33950;48.154;16.316;2023-03-03T09:49:07;79.80;;;34.95;;
48161;SDS011;33950;48.154;16.316;2023-03-03T09:52:06;76.07;;;32.95;;
48161;SDS011;33950;48.154;16.316;2023-03-03T09:55:03;71.10;;;33.97;;
48161;SDS011;33950;48.154;16.316;2023-03-03T09:58:01;81.82;;;33.05;;
48161;SDS011;33950;48.154;16.316;2023-03-03T10:01:01;81.47;;;35.42;;
48161;SDS011;33950;48.154;16.316;2023-03-03T10:04:05;77.30;;;35.17;;
48161;SDS011;33950;48.154;16.316;2023-03-03T10:07:08;79.30;;;34.47;;
48161;SDS011;33950;48.154;16.316;2023-03-03T10:10:16;72.75;;;33.85;;
48161;SDS011;33950;48.154;16.316;2023-03-03T10:13:11;70.97;;;32.85;;
48161;SDS011;33950;48.154;16.316;2023-03-03T10:19:26;79.78;;;33.58;;
48161;SDS011;33950;48.154;16.316;2023-03-03T10:22:23;75.63;;;34.83;;
48161;SDS011;33950;48.154;16.316;2023-03-03T10:25:21;67.97;;;32.40;;
48161;SDS011;33950;48.154;16.316;2023-03-03T10:31:34;72.35;;;32.95;;
48161;SDS011;33950;48.154;16.316;2023-03-03T10:34:35;71.60;;;33.95;;
48161;SDS011;33950;48.154;16.316;2023-03-03T10:37:38;70.28;;;32.85;;
48161;SDS011;33950;48.154;16.316;2023-03-03T10:40:32;76.32;;;33.38;;
48161;SDS011;33950;48.154;16.316;2023-03-03T10:43:24;73.63;;;33.28;;
48161;SDS011;33950;48.154;16.316;2023-03-03T10:46:30;65.10;;;29.30;;
48161;SDS011;33950;48.154;16.316;2023-03-03T10:49:37;69.70;;;32.72;;
48161;SDS011;33950;48.154;16.316;2023-03-03T10:52:37;69.35;;;33.88;;
48161;SDS011;33950;48.154;16.316;2023-03-03T10:55:31;73.78;;;32.28;;
48161;SDS011;33950;48.154;16.316;2023-03-03T11:01:29;69.80;;;31.50;;
48161;SDS011;33950;48.154;16.316;2023-03-03T11:04:31;63.72;;;30.65;;
48161;SDS011;33950;48.154;16.316;2023-03-03T11:07:38;66.50;;;30.30;;
48161;SDS011;33950;48.154;16.316;2023-03-03T11:10:43;61.45;;;30.48;;
48161;SDS011;33950;48.154;16.316;2023-03-03T11:13:40;59.97;;;28.75;;
48161;SDS011;33950;48.154;16.316;2023-03-03T11:16:36;62.47;;;29.45;;
48161;SDS011;33950;48.154;16.316;2023-03-03T11:19:39;55.80;;;28.40;;
48161;SDS011;33950;48.154;16.316;2023-03-03T11:22:37;61.58;;;29.90;;
48161;SDS011;33950;48.154;16.316;2023-03-03T11:25:29;54.22;;;27.83;;
48161;SDS011;33950;48.154;16.316;2023-03-03T11:28:25;55.72;;;28.00;;
48161;SDS011;33950;48.154;16.316;2023-03-03T11:31:23;57.30;;;29.52;;
48161;SDS011;33950;48.154;16.316;2023-03-03T11:34:21;61.10;;;31.02;;
48161;SDS011;33950;48.154;16.316;2023-03-03T11:37:33;58.20;;;28.05;;
48161;SDS011;33950;48.154;16.316;2023-03-03T11:40:24;54.90;;;25.83;;
48161;SDS011;33950;48.154;16.316;2023-03-03T11:43:14;48.85;;;24.48;;
48161;SDS011;33950;48.154;16.316;2023-03-03T11:46:07;53.92;;;26.33;;
48161;SDS011;33950;48.154;16.316;2023-03-03T11:48:57;52.17;;;25.20;;
48161;SDS011;33950;48.154;16.316;2023-03-03T11:51:53;51.50;;;25.73;;
48161;SDS011;33950;48.154;16.316;2023-03-03T11:54:51;54.40;;;28.85;;
48161;SDS011;33950;48.154;16.316;2023-03-03T11:57:42;63.08;;;29.80;;
48161;SDS011;33950;48.154;16.316;2023-03-03T12:00:32;50.70;;;26.98;;
48161;SDS011;33950;48.154;16.316;2023-03-03T12:06:16;50.33;;;26.35;;
48161;SDS011;33950;48.154;16.316;2023-03-03T12:09:11;53.80;;;27.73;;
48161;SDS011;33950;48.154;16.316;2023-03-03T12:12:10;64.30;;;28.23;;
48161;SDS011;33950;48.154;16.316;2023-03-03T12:15:02;54.15;;;26.73;;
48161;SDS011;33950;48.154;16.316;2023-03-03T12:18:00;50.20;;;27.58;;
48161;SDS011;33950;48.154;16.316;2023-03-03T12:21:02;57.38;;;26.30;;
48161;SDS011;33950;48.154;16.316;2023-03-03T12:24:01;52.85;;;27.33;;
48161;SDS011;33950;48.154;16.316;2023-03-03T12:26:59;49.90;;;26.00;;
48161;SDS011;33950;48.154;16.316;2023-03-03T12:29:58;54.33;;;27.05;;
48161;SDS011;33950;48.154;16.316;2023-03-03T12:36:09;52.95;;;26.67;;
48161;SDS011;33950;48.154;16.316;2023-03-03T12:39:05;45.67;;;25.25;;
48161;SDS011;33950;48.154;16.316;2023-03-03T12:41:58;46.58;;;24.55;;
48161;SDS011;33950;48.154;16.316;2023-03-03T12:44:50;41.55;;;23.15;;
48161;SDS011;33950;48.154;16.316;2023-03-03T12:47:45;46.65;;;24.50;;
48161;SDS011;33950;48.154;16.316;2023-03-03T12:50:37;41.90;;;22.25;;
48161;SDS011;33950;48.154;16.316;2023-03-03T12:53:33;50.95;;;24.35;;
48161;SDS011;33950;48.154;16.316;2023-03-03T12:56:29;43.20;;;23.42;;
48161;SDS011;33950;48.154;16.316;2023-03-03T12:59:24;44.28;;;23.83;;
48161;SDS011;33950;48.154;16.316;2023-03-03T13:02:42;46.67;;;24.15;;
48161;SDS011;33950;48.154;16.316;2023-03-03T13:05:34;45.90;;;24.85;;
48161;SDS011;33950;48.154;16.316;2023-03-03T13:08:36;46.70;;;24.30;;
48161;SDS011;33950;48.154;16.316;2023-03-03T13:11:34;45.67;;;24.02;;
48161;SDS011;33950;48.154;16.316;2023-03-03T13:14:38;46.22;;;23.90;;
48161;SDS011;33950;48.154;16.316;2023-03-03T13:20:21;45.35;;;24.35;;
48161;SDS011;33950;48.154;16.316;2023-03-03T13:23:17;46.20;;;23.27;;
48161;SDS011;33950;48.154;16.316;2023-03-03T13:26:17;51.07;;;25.07;;
48161;SDS011;33950;48.154;16.316;2023-03-03T13:29:10;49.20;;;25.20;;
48161;SDS011;33950;48.154;16.316;2023-03-03T13:32:07;51.03;;;24.30;;
48161;SDS011;33950;48.154;16.316;2023-03-03T13:35:00;48.28;;;25.40;;
48161;SDS011;33950;48.154;16.316;2023-03-03T13:37:54;48.08;;;24.70;;
48161;SDS011;33950;48.154;16.316;2023-03-03T13:40:42;46.15;;;24.77;;
48161;SDS011;33950;48.154;16.316;2023-03-03T13:43:31;44.03;;;24.25;;
48161;SDS011;33950;48.154;16.316;2023-03-03T13:46:27;46.55;;;23.48;;
48161;SDS011;33950;48.154;16.316;2023-03-03T13:49:26;49.78;;;25.83;;
48161;SDS011;33950;48.154;16.316;2023-03-03T13:52:25;54.15;;;25.58;;
48161;SDS011;33950;48.154;16.316;2023-03-03T13:55:18;43.58;;;23.10;;
48161;SDS011;33950;48.154;16.316;2023-03-03T13:58:11;45.47;;;24.92;;
48161;SDS011;33950;48.154;16.316;2023-03-03T14:01:05;54.75;;;23.42;;
48161;SDS011;33950;48.154;16.316;2023-03-03T14:04:04;46.22;;;25.08;;
48161;SDS011;33950;48.154;16.316;2023-03-03T14:06:59;48.63;;;25.58;;
48161;SDS011;33950;48.154;16.316;2023-03-03T14:09:54;50.83;;;25.75;;
48161;SDS011;33950;48.154;16.316;2023-03-03T14:12:49;45.05;;;23.75;;
48161;SDS011;33950;48.154;16.316;2023-03-03T14:15:43;44.60;;;23.83;;
48161;SDS011;33950;48.154;16.316;2023-03-03T14:18:37;47.03;;;23.20;;
48161;SDS011;33950;48.154;16.316;2023-03-03T14:21:27;46.83;;;23.38;;
48161;SDS011;33950;48.154;16.316;2023-03-03T14:24:18;43.67;;;24.05;;
48161;SDS011;33950;48.154;16.316;2023-03-03T14:27:12;42.05;;;22.42;;
48161;SDS011;33950;48.154;16.316;2023-03-03T14:30:23;47.65;;;23.65;;
48161;SDS011;33950;48.154;16.316;2023-03-03T14:33:15;44.13;;;25.08;;
48161;SDS011;33950;48.154;16.316;2023-03-03T14:36:05;49.33;;;25.05;;
48161;SDS011;33950;48.154;16.316;2023-03-03T14:38:56;45.70;;;25.40;;
48161;SDS011;33950;48.154;16.316;2023-03-03T14:41:42;49.70;;;25.20;;
48161;SDS011;33950;48.154;16.316;2023-03-03T14:44:29;46.50;;;24.85;;
48161;SDS011;33950;48.154;16.316;2023-03-03T14:47:22;45.97;;;23.98;;
48161;SDS011;33950;48.154;16.316;2023-03-03T14:50:26;43.70;;;23.73;;
48161;SDS011;33950;48.154;16.316;2023-03-03T14:53:20;53.55;;;24.42;;
48161;SDS011;33950;48.154;16.316;2023-03-03T14:56:20;54.03;;;24.20;;
48161;SDS011;33950;48.154;16.316;2023-03-03T14:59:14;45.97;;;23.35;;
48161;SDS011;33950;48.154;16.316;2023-03-03T15:02:24;52.15;;;25.67;;
48161;SDS011;33950;48.154;16.316;2023-03-03T15:05:19;52.63;;;23.85;;
48161;SDS011;33950;48.154;16.316;2023-03-03T15:08:07;43.60;;;23.80;;
48161;SDS011;33950;48.154;16.316;2023-03-03T15:10:55;48.88;;;23.35;;
48161;SDS011;33950;48.154;16.316;2023-03-03T15:14:09;47.95;;;24.67;;
48161;SDS011;33950;48.154;16.316;2023-03-03T15:20:16;42.47;;;22.60;;
48161;SDS011;33950;48.154;16.316;2023-03-03T15:23:18;41.22;;;21.50;;
48161;SDS011;33950;48.154;16.316;2023-03-03T15:26:33;37.75;;;20.45;;
48161;SDS011;33950;48.154;16.316;2023-03-03T15:29:28;42.08;;;22.13;;
48161;SDS011;33950;48.154;16.316;2023-03-03T15:32:22;41.50;;;22.02;;
48161;SDS011;33950;48.154;16.316;2023-03-03T15:35:18;35.38;;;19.40;;
48161;SDS011;33950;48.154;16.316;2023-03-03T15:38:14;35.42;;;19.65;;
48161;SDS011;33950;48.154;16.316;2023-03-03T15:41:18;35.35;;;18.70;;
48161;SDS011;33950;48.154;16.316;2023-03-03T15:44:11;34.78;;;17.08;;
48161;SDS011;33950;48.154;16.316;2023-03-03T15:47:04;35.05;;;17.88;;
48161;SDS011;33950;48.154;16.316;2023-03-03T15:53:24;33.90;;;16.70;;
48161;SDS011;33950;48.154;16.316;2023-03-03T15:56:22;35.10;;;16.52;;
48161;SDS011;33950;48.154;16.316;2023-03-03T15:59:24;32.55;;;15.88;;
48161;SDS011;33950;48.154;16.316;2023-03-03T16:02:27;31.30;;;15.93;;
48161;SDS011;33950;48.154;16.316;2023-03-03T16:05:28;29.73;;;15.77;;
48161;SDS011;33950;48.154;16.316;2023-03-03T16:08:18;34.28;;;16.80;;
48161;SDS011;33950;48.154;16.316;2023-03-03T16:14:06;35.55;;;17.08;;
48161;SDS011;33950;48.154;16.316;2023-03-03T16:17:05;33.00;;;16.35;;
48161;SDS011;33950;48.154;16.316;2023-03-03T16:20:05;32.97;;;16.05;;
48161;SDS011;33950;48.154;16.316;2023-03-03T16:23:19;31.38;;;16.67;;
48161;SDS011;33950;48.154;16.316;2023-03-03T16:26:14;37.10;;;16.08;;
48161;SDS011;33950;48.154;16.316;2023-03-03T16:29:24;30.80;;;16.42;;
48161;SDS011;33950;48.154;16.316;2023-03-03T16:32:25;45.88;;;18.52;;
48161;SDS011;33950;48.154;16.316;2023-03-03T16:35:21;33.83;;;18.02;;
48161;SDS011;33950;48.154;16.316;2023-03-03T16:38:09;34.60;;;17.57;;
48161;SDS011;33950;48.154;16.316;2023-03-03T16:41:03;43.20;;;18.98;;
48161;SDS011;33950;48.154;16.316;2023-03-03T16:46:45;41.15;;;19.80;;
48161;SDS011;33950;48.154;16.316;2023-03-03T16:49:36;37.13;;;18.45;;
48161;SDS011;33950;48.154;16.316;2023-03-03T16:52:30;34.25;;;17.95;;
48161;SDS011;33950;48.154;16.316;2023-03-03T16:55:19;41.35;;;20.55;;
48161;SDS011;33950;48.154;16.316;2023-03-03T16:58:15;47.72;;;22.15;;
48161;SDS011;33950;48.154;16.316;2023-03-03T17:01:11;43.47;;;20.02;;
48161;SDS011;33950;48.154;16.316;2023-03-03T17:04:06;42.10;;;20.25;;
48161;SDS011;33950;48.154;16.316;2023-03-03T17:06:59;42.85;;;20.88;;
48161;SDS011;33950;48.154;16.316;2023-03-03T17:09:57;44.42;;;19.17;;